Terminal Aerodrome Forecast
Issued by NWS Albany, NY

Home | Current Version | Previous Version | Text Only | Print | Product List | Glossary On
Versions: 1 2 3 4 5 6 7 8 9 10 11 12 13 14 15
000
FTUS41 KALY 231400 AAA
TAFPOU
TAF AMD
KPOU 231404Z 2314/2412 31010KT P6SM VCSH OVC035
      TEMPO 2314/2317 4SM -SHRA BR BKN025 OVC030
     FM231700 32015G25KT P6SM VCSH BKN035 OVC050
     FM240000 30012KT P6SM SCT040
     FM240500 30010KT P6SM SKC=

USA.gov is the U.S. government's official web portal to all federal, state and local government web resources and services.